»·PEaware :: SWA342 KLAS-KSNA

SWA342 :: KLAS-KSNA

FLIGHT INFORMATION

Flight Status: Arrived
Operator:
Southwest Airlines
More flights by this operator :: More flights under this callsign
Pilot: Matthew M. (8235)
Aircraft: BOEING 737-200
(B732)
More flights by this aircraft type
Origin: KLAS McCarran Intl
United States
Destination: KSNA John Wayne-Orange Co
United States
More flights between these airports :: More routes between these airports
Route: +MCCRN4 HEC KAYOH5
File this flight plan on PilotEdge
Remarks:
Altitude:
(Current/Filed)
22,000ft
Speed:
(Current/Filed)
400kts
Departed: 20-Sep-15 07:44 AM
Arrived: 20-Sep-15 08:29 AM
Distance/Time
Traveled:
197nm/0:44
Distance/Time
To Go:
Arrived

Flight Plot

Page will automatically refresh every two minutes.


Map Options




Map Legend


Flown Route
Filed Route
Departure Airport
Arrival Airport
Navaid (VOR, NDB)
Fix

Horizontal Profiles

Position Reports

Time Latitude Longitude Heading Altitude Ground
Speed
20-Sep-15 07:28 36.082137 -115.153043 25 2115ft 0kts
20-Sep-15 07:29 36.082137 -115.153043 25 2115ft 0kts
20-Sep-15 07:30 36.082137 -115.153043 25 2115ft 0kts
20-Sep-15 07:31 36.082137 -115.153043 25 2115ft 0kts
20-Sep-15 07:32 36.082137 -115.153043 25 2115ft 0kts
20-Sep-15 07:33 36.082137 -115.153043 25 2115ft 0kts
20-Sep-15 07:34 36.082137 -115.153043 25 2115ft 0kts
20-Sep-15 07:35 36.082137 -115.153043 25 2115ft 0kts
20-Sep-15 07:36 36.082137 -115.153043 25 2115ft 0kts
20-Sep-15 07:37 36.082137 -115.153043 25 2115ft 0kts
20-Sep-15 07:38 36.082137 -115.153043 25 2115ft 0kts
20-Sep-15 07:39 36.082137 -115.153043 25 2115ft 0kts
20-Sep-15 07:40 36.082133 -115.153045 25 2115ft 1kts
20-Sep-15 07:41 36.081731 -115.153278 24 2118ft 1kts
20-Sep-15 07:42 36.081397 -115.153066 276 2118ft 0kts
20-Sep-15 07:43 36.081397 -115.153066 276 2118ft 0kts
20-Sep-15 07:44 36.081411 -115.153196 278 2118ft 5kts
20-Sep-15 07:45 36.084074 -115.156414 335 2122ft 13kts
20-Sep-15 07:46 36.087913 -115.157383 27 2116ft 13kts
20-Sep-15 07:47 36.088835 -115.156058 356 2110ft 0kts
20-Sep-15 07:48 36.088835 -115.156058 356 2110ft 0kts
20-Sep-15 07:49 36.088835 -115.156058 356 2110ft 0kts
20-Sep-15 07:50 36.088835 -115.156058 356 2110ft 0kts
20-Sep-15 07:51 36.088835 -115.156058 356 2110ft 0kts
20-Sep-15 07:52 36.088835 -115.156058 356 2110ft 0kts
20-Sep-15 07:53 36.088835 -115.156058 356 2110ft 0kts
20-Sep-15 07:54 36.089935 -115.156116 358 2107ft 18kts
20-Sep-15 07:55 36.095685 -115.153057 22 2084ft 24kts
20-Sep-15 07:56 36.098087 -115.152512 297 2081ft 0kts
20-Sep-15 07:57 36.092693 -115.157014 205 2104ft 96kts
20-Sep-15 07:58 36.051012 -115.179241 203 3571ft 206kts
20-Sep-15 07:59 36.004369 -115.227610 232 6709ft 238kts
20-Sep-15 08:00 35.966054 -115.294880 233 9134ft 249kts
20-Sep-15 08:01 35.925739 -115.364668 233 11181ft 271kts
20-Sep-15 08:02 35.875026 -115.451540 233 11764ft 345kts
20-Sep-15 08:03 35.798551 -115.510828 193 14091ft 346kts
20-Sep-15 08:04 35.704478 -115.538329 193 16059ft 357kts
20-Sep-15 08:05 35.608075 -115.566133 192 18102ft 367kts
20-Sep-15 08:06 35.506405 -115.595330 192 19102ft 401kts
20-Sep-15 08:07 35.404376 -115.645582 224 19104ft 438kts
20-Sep-15 08:08 35.324110 -115.753608 225 19066ft 425kts
20-Sep-15 08:09 35.247870 -115.856561 227 19050ft 416kts
20-Sep-15 08:10 35.171188 -115.960191 229 19998ft 413kts
20-Sep-15 08:11 35.093578 -116.065174 228 21104ft 423kts
20-Sep-15 08:12 35.016973 -116.168640 227 22066ft 432kts
20-Sep-15 08:13 34.934694 -116.279166 229 22061ft 452kts
20-Sep-15 08:14 34.851299 -116.391207 229 22027ft 451kts
20-Sep-15 08:15 34.766628 -116.501561 228 22019ft 448kts
20-Sep-15 08:16 34.684394 -116.605521 228 21120ft 427kts
20-Sep-15 08:17 34.604709 -116.705820 227 19481ft 412kts
20-Sep-15 08:18 34.529909 -116.799697 227 17758ft 401kts
20-Sep-15 08:19 34.457747 -116.889978 228 15969ft 395kts
20-Sep-15 08:20 34.402903 -116.958160 227 14490ft 399kts
20-Sep-15 08:21 34.336006 -117.041472 226 13211ft 394kts
20-Sep-15 08:22 34.272020 -117.121595 227 12988ft 363kts
20-Sep-15 08:23 34.187406 -117.156129 164 10930ft 385kts
20-Sep-15 08:24 34.091609 -117.143093 176 10959ft 353kts
20-Sep-15 08:25 34.003296 -117.148939 187 10958ft 333kts
20-Sep-15 08:26 33.924502 -117.161671 187 10959ft 318kts
20-Sep-15 08:27 33.844207 -117.174759 191 10967ft 313kts
20-Sep-15 08:28 33.761397 -117.193847 201 10954ft 315kts
20-Sep-15 08:29 33.738340 -117.270228 306 9122ft 275kts
20-Sep-15 08:30 33.775677 -117.341940 273 8062ft 246kts
20-Sep-15 08:31 33.778431 -117.415509 273 8072ft 215kts
20-Sep-15 08:32 33.781586 -117.484959 273 7526ft 214kts
20-Sep-15 08:33 33.785139 -117.553914 274 6522ft 211kts
20-Sep-15 08:34 33.803043 -117.616816 303 6056ft 206kts
20-Sep-15 08:35 33.833809 -117.672704 303 5913ft 196kts
20-Sep-15 08:36 33.853729 -117.716764 266 4961ft 194kts
20-Sep-15 08:37 33.826830 -117.767790 233 3530ft 181kts
20-Sep-15 08:38 33.789487 -117.796601 208 2526ft 157kts
20-Sep-15 08:39 33.755113 -117.818445 208 1663ft 132kts
20-Sep-15 08:40 33.723310 -117.838533 206 983ft 131kts
20-Sep-15 08:41 33.692241 -117.858325 207 280ft 121kts
20-Sep-15 08:42 33.670939 -117.871790 208 55ft 35kts
20-Sep-15 08:43 33.670444 -117.869603 40 55ft 13kts
20-Sep-15 08:44 33.674320 -117.866381 29 51ft 17kts
20-Sep-15 08:45 33.675063 -117.865041 118 48ft 0kts
20-Sep-15 08:49 33.675063 -117.865041 118 48ft 0kts
20-Sep-15 08:50 33.675063 -117.865041 118 48ft 0kts
20-Sep-15 08:51 33.675063 -117.865041 118 48ft 0kts
20-Sep-15 08:52 33.675063 -117.865041 118 48ft 0kts
20-Sep-15 08:53 33.675063 -117.865041 118 48ft 0kts
20-Sep-15 08:54 33.675063 -117.865041 118 48ft 0kts
20-Sep-15 08:55 33.675063 -117.865041 118 48ft 0kts
20-Sep-15 08:56 33.675063 -117.865041 118 48ft 0kts

Navigation Log

Ident Type
Flight plan parsing failed, navigation log unavailable